Time;durP1;ratioP1;P1;durP2;ratioP2;P2;SDS_P1;SDS_P2;PMS_P1;PMS_P2;Temp;Humidity;BMP_temperature;BMP_pressure;BME280_temperature;BME280_humidity;BME280_pressure;Samples;Min_cycle;Max_cycle;Signal;HPM_P1;HPM_P2
2023/07/22 00:00:05;;;;;;;1.50;1.00;;;15.40;96.50;;;;;;4916215;29;20464;-82
2023/07/22 00:02:34;;;;;;;1.50;1.00;;;15.40;96.30;;;;;;4900267;29;20567;-84
2023/07/22 00:05:00;;;;;;;1.47;0.90;;;15.40;96.50;;;;;;4911947;29;20488;-82
2023/07/22 00:07:28;;;;;;;1.50;1.00;;;15.40;96.60;;;;;;4911551;29;21046;-83
2023/07/22 00:09:55;;;;;;;1.47;1.00;;;15.40;96.10;;;;;;4923752;29;20461;-83
2023/07/22 00:12:25;;;;;;;1.47;1.00;;;15.30;96.30;;;;;;4915254;29;20480;-83
2023/07/22 00:14:52;;;;;;;1.47;1.00;;;15.30;96.60;;;;;;4919461;29;20505;-82
2023/07/22 00:17:20;;;;;;;1.50;1.00;;;15.30;96.90;;;;;;4906929;29;20489;-83
2023/07/22 00:19:47;;;;;;;1.50;1.00;;;15.30;96.70;;;;;;4916162;29;20469;-84
2023/07/22 00:22:14;;;;;;;1.50;1.00;;;15.20;96.90;;;;;;4917370;29;20536;-84
2023/07/22 00:24:43;;;;;;;1.50;1.10;;;15.20;97.20;;;;;;4925386;29;21016;-83
2023/07/22 00:27:10;;;;;;;1.50;1.00;;;15.20;96.70;;;;;;4917461;29;20504;-83
2023/07/22 00:29:37;;;;;;;1.50;1.00;;;15.30;97.00;;;;;;4917813;29;20468;-83
2023/07/22 00:32:06;;;;;;;1.47;1.00;;;15.30;97.10;;;;;;4906292;29;20492;-83
2023/07/22 00:34:33;;;;;;;1.50;1.00;;;15.30;97.00;;;;;;4911655;29;20528;-82
2023/07/22 00:37:00;;;;;;;1.47;1.00;;;15.30;97.10;;;;;;4910654;29;20498;-83
2023/07/22 00:39:27;;;;;;;1.50;1.00;;;15.30;97.10;;;;;;4916023;29;20469;-83
2023/07/22 00:41:55;;;;;;;1.50;1.20;;;15.30;97.20;;;;;;4907295;29;20495;-83
2023/07/22 00:44:22;;;;;;;1.50;1.00;;;15.30;97.30;;;;;;4914859;29;20464;-83
2023/07/22 00:46:49;;;;;;;1.50;1.00;;;15.20;97.70;;;;;;4902863;29;20499;-83
2023/07/22 00:49:17;;;;;;;1.50;1.00;;;15.20;97.70;;;;;;4914584;29;20469;-84
2023/07/22 00:51:44;;;;;;;1.50;1.00;;;15.20;97.70;;;;;;4909979;29;20518;-82
2023/07/22 00:54:10;;;;;;;1.50;1.00;;;15.10;97.70;;;;;;4920982;29;20492;-82
2023/07/22 00:56:37;;;;;;;1.43;1.00;;;15.10;97.90;;;;;;4914341;29;20480;-83
2023/07/22 00:59:06;;;;;;;1.50;1.10;;;15.10;98.10;;;;;;4922058;29;20492;-83
2023/07/22 01:01:32;;;;;;;1.50;1.00;;;15.10;98.20;;;;;;4907379;29;20535;-82
2023/07/22 01:04:00;;;;;;;1.50;1.00;;;15.10;98.00;;;;;;4922528;29;20632;-83
2023/07/22 01:06:29;;;;;;;1.47;1.00;;;15.20;97.70;;;;;;4901354;29;20489;-84
2023/07/22 01:08:58;;;;;;;1.50;1.00;;;15.20;97.70;;;;;;4918797;29;20472;-83
2023/07/22 01:11:25;;;;;;;1.47;1.00;;;15.10;98.00;;;;;;4907967;29;21113;-85
2023/07/22 01:13:57;;;;;;;1.50;1.00;;;15.10;98.20;;;;;;4920055;29;20548;-83
2023/07/22 01:16:26;;;;;;;1.47;1.00;;;15.00;98.20;;;;;;4905778;29;20485;-83
2023/07/22 01:18:54;;;;;;;1.50;1.00;;;15.00;98.20;;;;;;4921337;29;20465;-85
2023/07/22 01:21:23;;;;;;;1.47;1.00;;;15.00;98.20;;;;;;4906203;29;20497;-83
2023/07/22 01:23:52;;;;;;;1.50;1.00;;;15.00;98.20;;;;;;4921747;29;20521;-83
2023/07/22 01:26:18;;;;;;;1.50;1.00;;;14.90;98.20;;;;;;4904253;29;20480;-84
2023/07/22 01:28:45;;;;;;;1.50;1.10;;;14.90;98.20;;;;;;4910097;29;20469;-84
2023/07/22 01:31:12;;;;;;;1.47;1.00;;;14.80;98.20;;;;;;4897331;29;20478;-82
2023/07/22 01:33:39;;;;;;;1.50;1.00;;;14.80;98.20;;;;;;4925547;29;20519;-83
2023/07/22 01:36:07;;;;;;;1.60;1.33;;;14.80;98.20;;;;;;4901177;29;20540;-84
2023/07/22 01:38:34;;;;;;;1.50;1.10;;;14.80;98.20;;;;;;4927461;29;20473;-83
2023/07/22 01:41:02;;;;;;;1.43;1.00;;;14.80;98.20;;;;;;4909450;29;20504;-83
2023/07/22 01:43:29;;;;;;;1.50;1.00;;;14.80;98.20;;;;;;4926702;29;20472;-83
2023/07/22 01:45:55;;;;;;;1.50;1.00;;;14.80;98.20;;;;;;4905734;29;20457;-83
2023/07/22 01:48:23;;;;;;;1.50;1.00;;;14.80;98.20;;;;;;4929514;29;20461;-83
2023/07/22 01:50:50;;;;;;;1.50;1.00;;;14.70;98.20;;;;;;4904877;29;20837;-84
2023/07/22 01:53:17;;;;;;;1.50;1.00;;;14.70;98.20;;;;;;4925281;29;20496;-83
2023/07/22 01:55:44;;;;;;;1.47;1.00;;;14.70;98.20;;;;;;4915473;29;20473;-83
2023/07/22 01:58:12;;;;;;;1.50;1.00;;;14.70;98.20;;;;;;4919802;29;20571;-83
2023/07/22 02:00:39;;;;;;;1.50;1.00;;;14.70;98.20;;;;;;4913796;29;20559;-83
2023/07/22 02:03:06;;;;;;;1.47;1.00;;;14.60;98.20;;;;;;4915895;29;20522;-83
2023/07/22 02:05:33;;;;;;;1.50;1.00;;;14.60;98.20;;;;;;4915120;29;20461;-83
2023/07/22 02:07:59;;;;;;;1.50;1.00;;;14.50;98.20;;;;;;4920037;29;20783;-83
2023/07/22 02:10:26;;;;;;;1.50;1.10;;;14.50;98.20;;;;;;4916246;29;20485;-84
2023/07/22 02:12:53;;;;;;;1.50;1.00;;;14.50;98.20;;;;;;4919601;29;20484;-83
2023/07/22 02:15:24;;;;;;;1.50;0.93;;;14.50;98.20;;;;;;4912667;29;20611;-84
2023/07/22 02:17:50;;;;;;;1.50;1.00;;;14.40;98.20;;;;;;4916395;29;20479;-84
2023/07/22 02:20:18;;;;;;;1.50;1.00;;;14.40;98.20;;;;;;4914458;29;20470;-83
2023/07/22 02:22:45;;;;;;;1.50;1.00;;;14.40;98.20;;;;;;4916053;29;20903;-84
2023/07/22 02:25:11;;;;;;;1.47;1.00;;;14.40;98.20;;;;;;4908323;29;20470;-85
2023/07/22 02:27:40;;;;;;;1.50;1.10;;;14.40;98.20;;;;;;4916201;29;20483;-85
2023/07/22 02:30:10;;;;;;;1.50;1.00;;;14.40;98.20;;;;;;4907492;29;20456;-84
2023/07/22 02:32:38;;;;;;;1.47;1.00;;;14.40;98.20;;;;;;4915261;29;20513;-84
2023/07/22 02:35:06;;;;;;;1.50;1.00;;;14.40;98.20;;;;;;4914179;29;20468;-84
2023/07/22 02:37:33;;;;;;;1.50;1.00;;;14.40;98.20;;;;;;4909759;29;21030;-86
2023/07/22 02:40:00;;;;;;;1.50;1.23;;;14.50;98.20;;;;;;4911874;29;20485;-83
2023/07/22 02:42:27;;;;;;;1.50;1.00;;;14.40;98.20;;;;;;4913325;29;20487;-85
2023/07/22 02:44:54;;;;;;;1.50;1.10;;;14.40;98.20;;;;;;4914475;29;22063;-84
2023/07/22 02:47:20;;;;;;;1.40;1.00;;;14.40;98.20;;;;;;4916758;29;20488;-84
2023/07/22 02:49:48;;;;;;;1.50;1.10;;;14.40;98.20;;;;;;4922420;29;20476;-85
2023/07/22 02:52:16;;;;;;;1.50;1.00;;;14.40;98.20;;;;;;4918504;29;20499;-85
2023/07/22 02:54:43;;;;;;;1.50;1.03;;;14.40;98.20;;;;;;4918226;29;20497;-82
2023/07/22 02:57:10;;;;;;;1.43;1.00;;;14.40;98.20;;;;;;4916343;29;20489;-83
2023/07/22 02:59:37;;;;;;;1.50;1.00;;;14.40;98.20;;;;;;4922224;29;20479;-83
2023/07/22 03:02:04;;;;;;;1.50;1.00;;;14.40;98.20;;;;;;4915237;29;20487;-84
2023/07/22 03:04:30;;;;;;;1.50;1.10;;;14.30;98.20;;;;;;4919490;29;20478;-83
2023/07/22 03:07:00;;;;;;;1.47;1.00;;;14.30;98.20;;;;;;4913288;29;20585;-85
2023/07/22 03:09:26;;;;;;;1.50;1.00;;;14.20;98.20;;;;;;4922853;29;20479;-84
2023/07/22 03:11:53;;;;;;;1.47;1.00;;;14.20;98.20;;;;;;4909419;29;20583;-83
2023/07/22 03:14:21;;;;;;;1.50;1.10;;;14.20;98.20;;;;;;4916416;29;21076;-84
2023/07/22 03:16:48;;;;;;;1.47;1.00;;;14.20;98.20;;;;;;4909975;29;20487;-84
2023/07/22 03:19:17;;;;;;;1.50;1.00;;;14.20;98.20;;;;;;4921752;29;20591;-82
2023/07/22 03:21:44;;;;;;;1.50;1.00;;;14.20;98.20;;;;;;4914567;29;20498;-83
2023/07/22 03:24:12;;;;;;;1.50;1.00;;;14.10;98.20;;;;;;4925864;29;20553;-84
2023/07/22 03:26:39;;;;;;;1.50;1.00;;;14.10;98.20;;;;;;4912625;29;20483;-84
2023/07/22 03:29:06;;;;;;;1.50;1.00;;;14.10;98.20;;;;;;4928716;29;20883;-84
2023/07/22 03:31:33;;;;;;;1.50;1.00;;;14.10;98.20;;;;;;4916766;29;20484;-83
2023/07/22 03:34:00;;;;;;;2.13;1.93;;;14.10;98.20;;;;;;4919650;29;20799;-84
2023/07/22 03:36:28;;;;;;;1.50;1.00;;;14.10;98.20;;;;;;4906659;29;20581;-83
2023/07/22 03:38:55;;;;;;;1.50;1.00;;;14.00;98.20;;;;;;4919766;29;20537;-83
2023/07/22 03:41:23;;;;;;;1.50;1.00;;;14.00;98.20;;;;;;4906690;29;20488;-83
2023/07/22 03:43:49;;;;;;;1.50;1.00;;;14.00;98.20;;;;;;4920778;29;20482;-83
2023/07/22 03:46:16;;;;;;;1.50;1.00;;;14.00;98.20;;;;;;4912882;29;20475;-84
2023/07/22 03:48:43;;;;;;;1.50;1.00;;;14.00;98.20;;;;;;4925269;29;20515;-83
2023/07/22 03:51:10;;;;;;;1.50;1.00;;;14.00;98.20;;;;;;4910322;29;20483;-83
2023/07/22 03:53:36;;;;;;;1.50;1.20;;;14.00;98.20;;;;;;4926504;29;20870;-83
2023/07/22 03:56:03;;;;;;;1.50;1.00;;;14.00;98.20;;;;;;4906814;29;20475;-82
2023/07/22 03:58:32;;;;;;;1.50;1.10;;;14.00;98.20;;;;;;4916123;29;20492;-83
2023/07/22 04:00:59;;;;;;;1.50;1.00;;;14.00;98.20;;;;;;4909271;29;20484;-83
2023/07/22 04:03:25;;;;;;;1.50;1.10;;;14.10;98.20;;;;;;4924986;29;20495;-83
2023/07/22 04:05:55;;;;;;;1.43;1.00;;;14.10;98.20;;;;;;4907162;29;20468;-83
2023/07/22 04:08:22;;;;;;;1.50;1.00;;;14.20;98.20;;;;;;4915584;29;20469;-83
2023/07/22 04:10:53;;;;;;;1.47;1.00;;;14.20;98.20;;;;;;4909347;29;20495;-84
2023/07/22 04:13:19;;;;;;;1.50;1.10;;;14.30;98.20;;;;;;4927957;29;20808;-82
2023/07/22 04:15:48;;;;;;;1.50;1.00;;;14.30;98.20;;;;;;4912344;29;20472;-83
2023/07/22 04:18:16;;;;;;;1.50;1.00;;;14.30;98.20;;;;;;4899293;29;20478;-82
2023/07/22 04:20:43;;;;;;;1.50;1.00;;;14.30;98.20;;;;;;4914557;29;20495;-82
2023/07/22 04:23:11;;;;;;;1.50;1.10;;;14.40;98.20;;;;;;4911281;29;20484;-82
2023/07/22 04:25:40;;;;;;;1.50;1.10;;;14.40;98.20;;;;;;4909669;29;21484;-82
2023/07/22 04:28:07;;;;;;;1.50;1.00;;;14.40;98.20;;;;;;4896987;29;20489;-82
2023/07/22 04:30:34;;;;;;;1.50;1.00;;;14.40;98.20;;;;;;4913519;29;20528;-81
2023/07/22 04:33:02;;;;;;;1.47;1.00;;;14.40;98.20;;;;;;4895815;29;20596;-81
2023/07/22 04:35:32;;;;;;;1.50;1.00;;;14.40;98.20;;;;;;4909761;29;20515;-82
2023/07/22 04:37:58;;;;;;;1.50;1.00;;;14.40;98.20;;;;;;4915112;29;20483;-80
2023/07/22 04:40:25;;;;;;;1.50;1.07;;;14.40;98.20;;;;;;4911612;29;20475;-82
2023/07/22 04:42:52;;;;;;;1.50;1.00;;;14.50;98.20;;;;;;4913802;29;20574;-81
2023/07/22 04:45:27;;;;;;;1.50;1.00;;;14.50;98.20;;;;;;4911967;29;20468;-82
2023/07/22 04:47:54;;;;;;;1.50;1.10;;;14.50;98.20;;;;;;4912941;29;20515;-81
2023/07/22 04:50:22;;;;;;;1.50;1.00;;;14.60;98.20;;;;;;4910745;29;20513;-83
2023/07/22 04:52:49;;;;;;;1.60;1.30;;;14.70;98.20;;;;;;4896656;29;20499;-81
2023/07/22 04:55:16;;;;;;;1.43;1.00;;;14.70;98.20;;;;;;4914380;29;20488;-81
2023/07/22 04:57:44;;;;;;;1.47;1.00;;;14.70;98.20;;;;;;4915633;29;20515;-81
2023/07/22 05:00:14;;;;;;;1.47;0.90;;;14.70;98.20;;;;;;4912989;29;20536;-82
2023/07/22 05:02:41;;;;;;;1.50;1.00;;;14.80;98.20;;;;;;4913949;29;20480;-82
2023/07/22 05:05:09;;;;;;;1.50;1.00;;;14.80;98.20;;;;;;4912661;29;20750;-82
2023/07/22 05:07:37;;;;;;;1.50;1.00;;;14.90;98.20;;;;;;4911576;29;20857;-82
2023/07/22 05:10:05;;;;;;;1.50;1.00;;;14.90;98.20;;;;;;4912078;29;20884;-82
2023/07/22 05:12:32;;;;;;;1.50;1.00;;;15.00;98.20;;;;;;4913513;29;20499;-82
2023/07/22 05:14:58;;;;;;;1.47;1.00;;;15.00;98.20;;;;;;4910600;29;20699;-82
2023/07/22 05:17:29;;;;;;;1.50;1.00;;;15.10;98.20;;;;;;4908423;29;20582;-81
2023/07/22 05:19:55;;;;;;;1.50;1.00;;;15.10;98.20;;;;;;4912872;29;20468;-81
2023/07/22 05:22:22;;;;;;;1.50;1.00;;;15.20;98.20;;;;;;4906567;29;20487;-81
2023/07/22 05:24:51;;;;;;;1.50;1.17;;;15.30;98.20;;;;;;4913025;29;20460;-82
2023/07/22 05:27:18;;;;;;;1.50;1.17;;;15.40;98.20;;;;;;4915716;29;20519;-82
2023/07/22 05:29:45;;;;;;;1.47;1.00;;;15.50;98.20;;;;;;4918400;29;20544;-81
2023/07/22 05:32:12;;;;;;;1.50;1.00;;;15.50;98.20;;;;;;4908743;29;20539;-82
2023/07/22 05:34:39;;;;;;;1.50;1.00;;;15.60;98.20;;;;;;4914094;29;20488;-82
2023/07/22 05:37:06;;;;;;;1.50;1.00;;;15.70;98.20;;;;;;4908462;29;20499;-82
2023/07/22 05:39:33;;;;;;;1.50;1.00;;;15.70;98.20;;;;;;4913213;29;20536;-81
2023/07/22 05:42:01;;;;;;;1.43;0.90;;;15.80;98.20;;;;;;4907851;29;20487;-81
2023/07/22 05:44:28;;;;;;;1.50;1.00;;;15.90;98.20;;;;;;4912741;29;20461;-80
2023/07/22 05:46:55;;;;;;;1.50;0.90;;;15.90;98.20;;;;;;4908781;29;20483;-81
2023/07/22 05:49:22;;;;;;;1.50;1.00;;;16.00;98.20;;;;;;4915853;29;20492;-82
2023/07/22 05:51:48;;;;;;;1.47;1.00;;;16.10;97.80;;;;;;4904492;29;20495;-82
2023/07/22 05:54:15;;;;;;;1.50;1.00;;;16.20;97.50;;;;;;4914575;29;20492;-81
2023/07/22 05:56:42;;;;;;;1.50;1.00;;;16.30;97.20;;;;;;4903909;29;20472;-82
2023/07/22 05:59:10;;;;;;;1.50;0.90;;;16.40;96.20;;;;;;4914270;29;20469;-81
2023/07/22 06:01:39;;;;;;;1.50;1.00;;;16.50;96.50;;;;;;4906598;29;20496;-82
2023/07/22 06:04:05;;;;;;;1.50;1.00;;;16.60;96.30;;;;;;4913307;29;20562;-82
2023/07/22 06:06:32;;;;;;;1.47;0.90;;;16.60;95.90;;;;;;4900012;29;20488;-82
2023/07/22 06:08:59;;;;;;;1.50;1.00;;;16.90;96.80;;;;;;4916982;29;20503;-82
2023/07/22 06:11:27;;;;;;;1.47;0.90;;;17.10;95.80;;;;;;4905843;29;20483;-83
2023/07/22 06:13:53;;;;;;;1.50;1.00;;;17.30;94.40;;;;;;4919521;29;20956;-83
2023/07/22 06:16:22;;;;;;;1.50;1.00;;;17.40;93.50;;;;;;4903188;29;20558;-83
2023/07/22 06:18:49;;;;;;;1.50;0.90;;;17.50;94.30;;;;;;4919343;29;20465;-82
2023/07/22 06:21:16;;;;;;;1.50;0.93;;;17.70;93.90;;;;;;4900885;29;22157;-82
2023/07/22 06:23:42;;;;;;;1.47;0.97;;;17.80;93.60;;;;;;4922033;29;21086;-82
2023/07/22 06:26:09;;;;;;;1.50;0.90;;;18.00;93.20;;;;;;4899460;29;20484;-84
2023/07/22 06:28:36;;;;;;;1.50;1.00;;;18.30;92.50;;;;;;4917247;29;20536;-83
2023/07/22 06:31:03;;;;;;;1.47;0.90;;;18.60;91.70;;;;;;4901424;29;20489;-82
2023/07/22 06:33:31;;;;;;;1.47;0.90;;;18.80;90.70;;;;;;4922572;29;20465;-83
2023/07/22 06:36:00;;;;;;;1.47;0.90;;;18.90;91.40;;;;;;4900504;29;20492;-83
2023/07/22 06:38:26;;;;;;;1.43;0.90;;;19.10;90.50;;;;;;4914956;29;20470;-84
2023/07/22 06:40:53;;;;;;;1.50;1.00;;;19.20;90.30;;;;;;4900653;29;20488;-84
2023/07/22 06:43:21;;;;;;;1.40;0.90;;;19.40;89.50;;;;;;4923545;29;20460;-85
2023/07/22 06:45:48;;;;;;;1.50;0.90;;;19.50;89.20;;;;;;4906084;29;20484;-83
2023/07/22 06:48:15;;;;;;;1.50;0.93;;;19.60;89.10;;;;;;4917400;29;20493;-83
2023/07/22 06:50:48;;;;;;;1.43;0.90;;;19.80;87.90;;;;;;4907970;29;20617;-83
2023/07/22 06:53:15;;;;;;;1.50;0.90;;;19.70;87.40;;;;;;4900367;29;21007;-83
2023/07/22 06:55:51;;;;;;;1.50;0.90;;;19.80;87.60;;;;;;4909944;29;20492;-82
2023/07/22 06:58:18;;;;;;;1.47;0.90;;;19.80;87.60;;;;;;4895630;29;20473;-83
2023/07/22 07:00:48;;;;;;;1.50;0.90;;;19.80;88.10;;;;;;4909826;29;20484;-83
2023/07/22 07:03:15;;;;;;;1.50;0.90;;;19.90;88.00;;;;;;4895533;29;20543;-83
2023/07/22 07:05:44;;;;;;;1.40;0.90;;;19.90;87.80;;;;;;4910081;29;20568;-84
2023/07/22 07:08:16;;;;;;;1.50;0.90;;;20.00;87.00;;;;;;4918768;29;20485;-85
2023/07/22 07:10:43;;;;;;;1.50;0.90;;;19.90;87.30;;;;;;4915497;29;20520;-84
2023/07/22 07:13:10;;;;;;;1.43;0.90;;;20.00;87.30;;;;;;4921272;29;20491;-83
2023/07/22 07:15:36;;;;;;;1.47;1.00;;;19.90;87.80;;;;;;4898370;29;20551;-83
2023/07/22 07:18:04;;;;;;;1.47;0.90;;;19.90;87.40;;;;;;4905567;29;20500;-83
2023/07/22 07:20:30;;;;;;;1.43;0.90;;;19.90;87.60;;;;;;4903178;29;20495;-85
2023/07/22 07:22:58;;;;;;;1.50;0.90;;;19.90;87.90;;;;;;4905563;29;20476;-82
2023/07/22 07:25:25;;;;;;;1.47;0.90;;;19.80;87.70;;;;;;4903557;29;20472;-83
2023/07/22 07:27:52;;;;;;;1.50;0.90;;;19.90;88.20;;;;;;4909305;29;20491;-85
2023/07/22 07:30:19;;;;;;;1.50;0.90;;;20.00;87.40;;;;;;4906027;29;20468;-84
2023/07/22 07:32:46;;;;;;;1.43;0.90;;;20.10;87.10;;;;;;4907434;29;20619;-84
2023/07/22 07:35:24;;;;;;;1.50;0.90;;;20.40;87.50;;;;;;4908753;29;20493;-86
2023/07/22 07:37:58;;;;;;;1.40;0.90;;;20.60;86.10;;;;;;4905484;29;20499;-85
2023/07/22 07:40:31;;;;;;;1.53;1.10;;;20.80;85.60;;;;;;4907525;29;20499;-86
2023/07/22 07:42:58;;;;;;;1.47;0.90;;;20.90;85.60;;;;;;4908395;29;20503;-86
2023/07/22 07:45:27;;;;;;;1.50;0.90;;;21.00;85.50;;;;;;4923534;23;21713;-84
2023/07/22 07:48:05;;;;;;;1.50;0.90;;;21.10;85.10;;;;;;4922026;29;20479;-83
2023/07/22 07:50:38;;;;;;;1.50;1.10;;;21.00;85.00;;;;;;4918752;29;20783;-85
2023/07/22 07:53:17;;;;;;;1.47;0.90;;;21.10;85.10;;;;;;4903743;29;20496;-83
2023/07/22 07:55:45;;;;;;;1.47;0.90;;;21.10;84.60;;;;;;4913023;29;20547;-83
2023/07/22 07:58:12;;;;;;;1.50;1.00;;;21.20;84.50;;;;;;4875700;29;20521;-84
2023/07/22 08:00:39;;;;;;;1.47;0.90;;;21.30;84.10;;;;;;4887057;29;20471;-84
2023/07/22 08:03:06;;;;;;;1.50;0.90;;;21.40;83.80;;;;;;4906976;29;20481;-85
2023/07/22 08:05:33;;;;;;;1.60;1.20;;;21.50;83.50;;;;;;4899000;29;20481;-85
2023/07/22 08:08:04;;;;;;;1.50;0.90;;;21.60;82.90;;;;;;4887591;29;20486;-85
2023/07/22 08:10:31;;;;;;;1.50;0.90;;;21.60;83.00;;;;;;4901180;29;20457;-85
2023/07/22 08:12:59;;;;;;;1.50;0.90;;;21.70;82.60;;;;;;4876197;29;20487;-84
2023/07/22 08:15:27;;;;;;;1.50;0.90;;;21.80;82.90;;;;;;4882190;29;21049;-85
2023/07/22 08:17:53;;;;;;;1.50;0.90;;;22.00;83.40;;;;;;4900655;29;20489;-85
2023/07/22 08:20:47;;;;;;;1.43;0.80;;;22.20;83.40;;;;;;4895715;29;20501;-83
2023/07/22 08:23:47;;;;;;;1.40;0.90;;;22.40;81.70;;;;;;4881097;29;20485;-84
2023/07/22 08:26:17;;;;;;;1.50;0.90;;;22.60;81.20;;;;;;4888036;29;20483;-84
2023/07/22 08:28:47;;;;;;;1.50;0.90;;;22.70;82.40;;;;;;4878664;29;20847;-83
2023/07/22 08:31:14;;;;;;;2.13;1.93;;;22.90;79.00;;;;;;4870105;29;20501;-82
2023/07/22 08:33:43;;;;;;;1.50;0.90;;;23.00;79.60;;;;;;4896708;29;20462;-82
2023/07/22 08:36:10;;;;;;;1.60;1.27;;;23.30;79.10;;;;;;4882107;29;20588;-85
2023/07/22 08:38:37;;;;;;;1.50;0.90;;;23.50;77.40;;;;;;4892270;29;20462;-83
2023/07/22 08:41:04;;;;;;;1.50;0.80;;;23.70;77.30;;;;;;4887412;29;20465;-83
2023/07/22 08:43:31;;;;;;;1.50;1.00;;;23.70;76.70;;;;;;4891750;29;20996;-84
2023/07/22 08:46:12;;;;;;;1.47;0.80;;;23.70;77.50;;;;;;4884063;29;20515;-83
2023/07/22 08:52:00;;;;;;;1.50;0.87;;;24.10;77.40;;;;;;4817197;29;20565;-84
2023/07/22 08:54:33;;;;;;;1.47;0.80;;;24.30;75.50;;;;;;4894049;29;20476;-83
2023/07/22 08:57:10;;;;;;;1.43;0.90;;;24.40;75.10;;;;;;4888911;29;21736;-84
2023/07/22 08:59:49;;;;;;;1.47;0.90;;;24.50;75.50;;;;;;4898823;29;20462;-83
2023/07/22 09:02:18;;;;;;;1.50;0.90;;;24.50;75.00;;;;;;4896071;29;20488;-83
2023/07/22 09:04:46;;;;;;;1.47;0.80;;;24.30;74.80;;;;;;4900042;29;20836;-83
2023/07/22 09:07:17;;;;;;;1.43;0.80;;;24.30;74.90;;;;;;4894422;29;20528;-85
2023/07/22 09:09:46;;;;;;;1.43;0.90;;;24.30;74.90;;;;;;4899823;29;21265;-83
2023/07/22 09:12:21;;;;;;;1.43;0.80;;;24.30;74.50;;;;;;4895517;29;20849;-85
2023/07/22 09:14:49;;;;;;;1.50;0.80;;;24.30;74.80;;;;;;4898357;29;20472;-85
2023/07/22 09:17:23;;;;;;;1.40;0.90;;;24.40;74.30;;;;;;4883329;29;20494;-82
2023/07/22 09:19:53;;;;;;;1.47;0.80;;;24.50;74.00;;;;;;4893014;29;20521;-84
2023/07/22 09:22:35;;;;;;;1.47;0.80;;;24.60;74.00;;;;;;4897577;29;20493;-84
2023/07/22 09:25:21;;;;;;;1.50;1.00;;;24.70;73.70;;;;;;4897295;29;20462;-82
2023/07/22 09:27:53;;;;;;;1.47;0.80;;;24.80;73.80;;;;;;4883498;29;20754;-83
2023/07/22 09:30:34;;;;;;;1.50;0.80;;;24.70;73.30;;;;;;4899721;29;20466;-85
2023/07/22 09:33:05;;;;;;;1.43;0.90;;;24.70;73.80;;;;;;4898121;29;20492;-82
2023/07/22 09:35:45;;;;;;;1.50;0.90;;;24.70;73.60;;;;;;4892854;29;20573;-82
2023/07/22 09:38:12;;;;;;;1.50;1.00;;;24.80;72.80;;;;;;4877231;29;20566;-82
2023/07/22 09:40:42;;;;;;;1.47;0.87;;;24.80;73.20;;;;;;4890751;29;20496;-82
2023/07/22 09:43:14;;;;;;;1.43;0.90;;;25.00;73.60;;;;;;4880057;29;20901;-82
2023/07/22 09:45:41;;;;;;;1.50;0.80;;;25.20;72.50;;;;;;4893201;29;20515;-81
2023/07/22 09:48:10;;;;;;;1.50;0.90;;;25.40;72.20;;;;;;4864914;29;20940;-82
2023/07/22 09:50:38;;;;;;;1.47;0.80;;;25.40;71.80;;;;;;4864153;29;20562;-83
2023/07/22 09:53:05;;;;;;;1.50;0.90;;;25.40;71.10;;;;;;4874091;29;20573;-82
2023/07/22 09:55:33;;;;;;;2.00;1.17;;;25.60;71.20;;;;;;4887311;29;20496;-83
2023/07/22 09:58:10;;;;;;;1.47;0.80;;;25.80;70.60;;;;;;4876037;29;20498;-82
2023/07/22 10:00:43;;;;;;;1.47;0.80;;;26.00;68.80;;;;;;4890779;29;20462;-83
2023/07/22 10:03:12;;;;;;;1.50;0.80;;;26.10;69.40;;;;;;4866753;29;21002;-84
2023/07/22 10:05:40;;;;;;;1.47;0.80;;;26.10;68.00;;;;;;4872773;29;20936;-84
2023/07/22 10:08:07;;;;;;;1.50;0.90;;;26.10;68.60;;;;;;4875695;29;21119;-83
2023/07/22 10:10:46;;;;;;;1.43;0.80;;;25.90;68.10;;;;;;4890109;29;20813;-82
2023/07/22 10:13:13;;;;;;;1.50;0.80;;;25.80;68.80;;;;;;4896723;29;20486;-84
2023/07/22 10:15:40;;;;;;;1.40;0.80;;;25.90;69.10;;;;;;4889235;29;20512;-83
2023/07/22 10:18:08;;;;;;;1.47;0.80;;;26.10;69.10;;;;;;4877590;29;20583;-83
2023/07/22 10:26:36;;;;;;;1.50;0.90;;;26.30;67.10;;;;;;4876563;29;20488;-84
2023/07/22 10:29:04;;;;;;;1.40;0.80;;;26.40;68.00;;;;;;4887818;29;20489;-84
2023/07/22 10:31:32;;;;;;;1.43;0.80;;;26.40;67.80;;;;;;4872464;29;20873;-86
2023/07/22 10:33:59;;;;;;;1.47;0.80;;;26.50;67.00;;;;;;4877979;29;20469;-83
2023/07/22 10:36:33;;;;;;;1.43;0.80;;;26.60;66.80;;;;;;4864790;29;20899;-84
2023/07/22 10:39:03;;;;;;;1.50;0.90;;;26.70;67.00;;;;;;4885063;29;20472;-83
2023/07/22 10:41:30;;;;;;;1.47;0.80;;;26.80;65.90;;;;;;4879946;29;20556;-83
2023/07/22 10:43:58;;;;;;;1.40;0.80;;;26.90;66.90;;;;;;4891731;29;20563;-84
2023/07/22 10:52:49;;;;;;;1.40;0.80;;;27.00;67.00;;;;;;4880494;29;20620;-85
2023/07/22 10:55:17;;;;;;;1.47;0.80;;;27.00;67.30;;;;;;4889560;29;20509;-84
2023/07/22 10:57:54;;;;;;;1.43;0.80;;;26.90;66.80;;;;;;4859735;29;20491;-83
2023/07/22 11:00:31;;;;;;;1.47;0.80;;;26.90;65.70;;;;;;4870798;29;20528;-83
2023/07/22 11:03:15;;;;;;;1.50;0.80;;;27.10;66.20;;;;;;4874310;29;20574;-85
2023/07/22 11:06:00;;;;;;;1.40;0.80;;;27.20;66.00;;;;;;4873921;29;21652;-85
2023/07/22 11:08:40;;;;;;;1.43;0.80;;;27.30;65.80;;;;;;4863889;29;20485;-83
2023/07/22 11:11:10;;;;;;;1.47;0.90;;;27.50;64.80;;;;;;4872825;29;20476;-85
2023/07/22 11:13:42;;;;;;;1.47;0.80;;;27.70;63.90;;;;;;4876014;29;20945;-85
2023/07/22 11:16:21;;;;;;;1.47;1.00;;;27.80;64.30;;;;;;4876448;29;20485;-85
2023/07/22 11:18:49;;;;;;;1.47;0.80;;;28.00;64.80;;;;;;4875788;29;21001;-84
2023/07/22 11:21:16;;;;;;;1.50;0.90;;;28.30;63.10;;;;;;4867967;29;20589;-83
2023/07/22 11:23:45;;;;;;;1.40;0.80;;;28.60;63.80;;;;;;4873518;29;20478;-84
2023/07/22 11:26:12;;;;;;;1.47;0.80;;;29.00;62.10;;;;;;4874692;29;20492;-85
2023/07/22 11:28:41;;;;;;;1.47;0.80;;;29.10;63.10;;;;;;4890040;29;20964;-86
2023/07/22 11:31:08;;;;;;;1.47;0.80;;;29.50;62.10;;;;;;4878529;29;20467;-84
2023/07/22 11:33:43;;;;;;;1.50;0.80;;;29.60;59.70;;;;;;4873722;29;20818;-86
2023/07/22 11:36:11;;;;;;;1.40;0.80;;;29.60;59.70;;;;;;4863146;29;21008;-85
2023/07/22 11:38:38;;;;;;;1.47;0.80;;;29.60;59.60;;;;;;4872209;29;21315;-84
2023/07/22 11:41:07;;;;;;;1.40;0.80;;;29.60;60.20;;;;;;4862803;29;20477;-84
2023/07/22 11:43:33;;;;;;;1.47;0.80;;;29.70;59.80;;;;;;4875594;29;20883;-84
2023/07/22 11:46:00;;;;;;;1.40;0.80;;;29.80;59.40;;;;;;4872712;29;20505;-83
2023/07/22 11:48:27;;;;;;;1.47;0.80;;;29.80;59.50;;;;;;4874517;29;20517;-83
2023/07/22 11:50:59;;;;;;;1.40;0.80;;;29.80;59.60;;;;;;4867895;29;20943;-83
2023/07/22 11:53:27;;;;;;;1.50;0.90;;;30.00;59.50;;;;;;4909517;29;20473;-83
2023/07/22 11:55:55;;;;;;;1.47;0.80;;;30.00;60.20;;;;;;4885919;29;20480;-83
2023/07/22 11:58:27;;;;;;;1.50;0.80;;;30.20;58.50;;;;;;4905257;29;20465;-83
2023/07/22 12:01:03;;;;;;;1.40;0.80;;;30.20;59.10;;;;;;4885105;29;20508;-83
2023/07/22 12:03:33;;;;;;;1.50;0.90;;;30.40;58.10;;;;;;4887810;29;20480;-82
2023/07/22 12:06:02;;;;;;;1.50;1.00;;;30.50;57.30;;;;;;4883654;29;20515;-83
2023/07/22 12:08:29;;;;;;;1.40;0.80;;;30.50;55.50;;;;;;4876391;29;20464;-81
2023/07/22 12:11:00;;;;;;;1.43;0.80;;;30.60;56.40;;;;;;4869760;29;20507;-81
2023/07/22 12:13:33;;;;;;;1.47;0.80;;;30.50;55.40;;;;;;4889110;29;20468;-82
2023/07/22 12:16:03;;;;;;;1.40;0.90;;;30.40;55.60;;;;;;4876783;29;20613;-83
2023/07/22 12:18:42;;;;;;;1.40;0.80;;;30.30;55.00;;;;;;4867765;29;20481;-84
2023/07/22 12:21:10;;;;;;;1.47;0.80;;;30.10;56.00;;;;;;4868875;29;20562;-81
2023/07/22 12:23:37;;;;;;;1.47;0.80;;;30.10;55.90;;;;;;4902005;29;20476;-82
2023/07/22 12:26:04;;;;;;;1.47;0.80;;;30.30;57.20;;;;;;4880666;29;20497;-82
2023/07/22 12:28:33;;;;;;;1.47;0.80;;;30.60;57.70;;;;;;4900008;29;20473;-82
2023/07/22 12:31:00;;;;;;;1.40;0.90;;;30.70;54.90;;;;;;4880193;29;20590;-85
2023/07/22 12:33:27;;;;;;;1.47;0.80;;;30.70;53.20;;;;;;4900504;29;20500;-82
2023/07/22 12:35:58;;;;;;;1.47;0.80;;;30.80;53.90;;;;;;4877499;29;20586;-84
2023/07/22 12:38:28;;;;;;;1.50;0.80;;;30.80;54.00;;;;;;4870412;29;21187;-85
2023/07/22 12:40:55;;;;;;;1.50;1.00;;;30.90;54.00;;;;;;4862345;29;20474;-84
2023/07/22 12:43:22;;;;;;;1.40;0.80;;;31.00;54.80;;;;;;4889296;29;20473;-83
2023/07/22 12:46:07;;;;;;;1.40;0.80;;;30.80;54.40;;;;;;4945644;23;20561;-83
2023/07/22 12:48:36;;;;;;;1.60;1.23;;;30.40;55.80;;;;;;4878603;29;21210;-83
2023/07/22 12:54:06;;;;;;;1.47;0.80;;;30.10;56.00;;;;;;4880646;29;20480;-82
2023/07/22 12:56:34;;;;;;;1.40;0.80;;;30.20;56.50;;;;;;4870210;29;20541;-82
2023/07/22 12:59:01;;;;;;;1.50;0.80;;;30.50;55.60;;;;;;4891023;29;20505;-81
2023/07/22 13:01:29;;;;;;;1.47;0.80;;;30.60;55.50;;;;;;4871713;29;20524;-81
2023/07/22 13:03:57;;;;;;;1.50;0.80;;;30.70;54.40;;;;;;4877213;29;20497;-82
2023/07/22 13:06:24;;;;;;;1.50;0.80;;;30.60;54.90;;;;;;4863866;29;21016;-81
2023/07/22 13:08:51;;;;;;;1.40;0.80;;;30.50;54.20;;;;;;4878446;29;20501;-82
2023/07/22 13:11:18;;;;;;;1.40;0.80;;;30.50;54.00;;;;;;4868361;29;20483;-81
2023/07/22 13:13:44;;;;;;;1.40;0.80;;;30.70;55.70;;;;;;4884221;29;20498;-82